Time;durP1;ratioP1;P1;durP2;ratioP2;P2;SDS_P1;SDS_P2;PMS_P1;PMS_P2;Temp;Humidity;BMP_temperature;BMP_pressure;BME280_temperature;BME280_humidity;BME280_pressure;Samples;Min_cycle;Max_cycle;Signal;HPM_P1;HPM_P2
2021/03/13 00:02:02;;;;;;;5.95;1.98;;;7.10;75.70;;;;;;5095060;28;20036;-35
2021/03/13 00:04:28;;;;;;;9.02;1.90;;;7.00;75.50;;;;;;5094575;28;20027;-35
2021/03/13 00:06:54;;;;;;;6.53;2.38;;;7.00;75.40;;;;;;5094762;28;20046;-35
2021/03/13 00:09:19;;;;;;;4.72;2.17;;;7.10;75.10;;;;;;5094660;28;20059;-35
2021/03/13 00:11:45;;;;;;;2.55;1.40;;;7.00;75.30;;;;;;5094547;28;20066;-35
2021/03/13 00:14:10;;;;;;;6.03;2.17;;;7.00;75.20;;;;;;5076310;28;20469;-35
2021/03/13 00:16:36;;;;;;;14.30;3.60;;;7.00;75.20;;;;;;5094515;28;20030;-35
2021/03/13 00:19:02;;;;;;;8.50;2.75;;;7.00;75.10;;;;;;5094771;28;20435;-35
2021/03/13 00:21:28;;;;;;;8.80;3.15;;;7.00;75.00;;;;;;5094812;28;20035;-35
2021/03/13 00:23:55;;;;;;;10.90;2.83;;;7.00;75.00;;;;;;5094463;28;20020;-36
2021/03/13 00:26:20;;;;;;;10.93;2.15;;;7.00;75.40;;;;;;5094528;28;20024;-35
2021/03/13 00:28:46;;;;;;;9.35;2.60;;;7.00;75.30;;;;;;5094063;28;20075;-35
2021/03/13 00:31:12;;;;;;;10.45;2.45;;;7.10;74.80;;;;;;5076466;28;20379;-35
2021/03/13 00:33:37;;;;;;;12.93;2.47;;;7.10;75.10;;;;;;5094232;28;20365;-36
2021/03/13 00:36:04;;;;;;;16.60;3.17;;;7.10;74.50;;;;;;5094459;28;20073;-35
2021/03/13 00:38:30;;;;;;;9.10;2.83;;;7.10;74.90;;;;;;5094236;28;20483;-35
2021/03/13 00:40:56;;;;;;;21.80;4.47;;;7.00;74.90;;;;;;5094113;28;20028;-50
2021/03/13 00:43:22;;;;;;;10.23;2.42;;;7.00;75.00;;;;;;5094177;28;20031;-36
2021/03/13 00:45:48;;;;;;;10.48;2.25;;;7.00;75.00;;;;;;5075811;28;20046;-36
2021/03/13 00:48:14;;;;;;;7.50;2.65;;;7.00;75.50;;;;;;5075658;28;20028;-36
2021/03/13 00:50:43;;;;;;;6.20;1.73;;;7.00;75.00;;;;;;5075745;28;20030;-36
2021/03/13 00:53:09;;;;;;;12.35;2.75;;;7.00;75.20;;;;;;5094046;28;20016;-36
2021/03/13 00:55:35;;;;;;;10.32;2.88;;;7.10;74.80;;;;;;5094105;28;20452;-35
2021/03/13 00:58:01;;;;;;;16.05;2.63;;;7.00;75.00;;;;;;5075180;28;20036;-36
2021/03/13 01:00:27;;;;;;;9.43;2.22;;;7.10;75.20;;;;;;5093693;28;20107;-35
2021/03/13 01:02:53;;;;;;;10.15;1.80;;;7.10;75.00;;;;;;5093702;28;20032;-35
2021/03/13 01:05:19;;;;;;;9.63;3.10;;;7.00;75.40;;;;;;5093931;28;20031;-36
2021/03/13 01:07:46;;;;;;;10.50;2.60;;;7.00;75.40;;;;;;5093812;28;20020;-36
2021/03/13 01:10:23;;;;;;;10.40;2.13;;;7.00;75.30;;;;;;5093614;28;20020;-36
2021/03/13 01:12:49;;;;;;;7.47;1.98;;;7.10;75.40;;;;;;5093617;28;20123;-36
2021/03/13 01:15:21;;;;;;;7.22;2.22;;;7.10;75.30;;;;;;5093485;28;20024;-37
2021/03/13 01:17:47;;;;;;;14.07;4.35;;;7.10;75.60;;;;;;5093586;28;20035;-36
2021/03/13 01:20:14;;;;;;;11.73;2.50;;;7.10;76.20;;;;;;5075170;28;20028;-37
2021/03/13 01:22:40;;;;;;;6.63;1.67;;;7.00;77.00;;;;;;5093658;28;20106;-36
2021/03/13 01:25:07;;;;;;;5.45;1.80;;;6.90;77.20;;;;;;5093360;28;20027;-36
2021/03/13 01:27:33;;;;;;;8.70;2.95;;;7.00;77.20;;;;;;5093595;28;20377;-36
2021/03/13 01:29:58;;;;;;;7.93;2.47;;;7.00;77.40;;;;;;5075370;28;20035;-36
2021/03/13 01:32:24;;;;;;;17.02;2.90;;;6.90;77.60;;;;;;5093445;28;20020;-35
2021/03/13 01:34:50;;;;;;;9.18;2.38;;;7.00;77.60;;;;;;5093704;28;20028;-36
2021/03/13 01:37:18;;;;;;;9.07;2.55;;;7.00;77.70;;;;;;5093695;28;20020;-36
2021/03/13 01:39:43;;;;;;;11.88;4.07;;;6.80;78.10;;;;;;5093303;28;20073;-36
2021/03/13 01:42:09;;;;;;;16.20;3.45;;;6.90;77.90;;;;;;5093570;28;20035;-36
2021/03/13 01:44:35;;;;;;;5.82;1.83;;;6.90;78.30;;;;;;5093620;28;20030;-36
2021/03/13 01:47:01;;;;;;;11.63;2.92;;;6.90;78.60;;;;;;5093605;28;20023;-37
2021/03/13 01:49:29;;;;;;;8.25;3.15;;;6.90;79.00;;;;;;5074985;28;20552;-35
2021/03/13 01:51:55;;;;;;;6.82;1.92;;;7.00;78.80;;;;;;5093213;28;20020;-36
2021/03/13 01:54:21;;;;;;;10.85;2.90;;;6.90;79.20;;;;;;5075023;28;20032;-37
2021/03/13 01:56:49;;;;;;;7.90;2.45;;;6.90;79.50;;;;;;5093144;28;20384;-36
2021/03/13 01:59:17;;;;;;;7.53;3.45;;;6.90;80.50;;;;;;5093435;28;20060;-36
2021/03/13 02:01:43;;;;;;;7.85;3.03;;;6.80;81.40;;;;;;5093341;28;20092;-36
2021/03/13 02:04:10;;;;;;;6.25;3.83;;;6.80;82.00;;;;;;5092934;28;20036;-36
2021/03/13 02:06:35;;;;;;;7.50;3.60;;;6.70;82.30;;;;;;5092969;28;20032;-37
2021/03/13 02:09:22;;;;;;;3.42;1.45;;;6.60;82.80;;;;;;5092855;28;20024;-34
2021/03/13 02:11:54;;;;;;;4.90;2.10;;;6.50;82.80;;;;;;5096367;28;20028;-36
2021/03/13 02:15:14;;;;;;;5.28;2.13;;;6.40;83.50;;;;;;5078534;28;20035;-35
2021/03/13 02:17:54;;;;;;;6.05;2.55;;;6.40;84.10;;;;;;5014880;28;20034;-36
2021/03/13 02:20:49;;;;;;;5.85;2.85;;;6.30;84.30;;;;;;5087288;28;20040;-35
2021/03/13 02:23:20;;;;;;;14.27;3.40;;;6.30;84.80;;;;;;5096471;28;20026;-36
2021/03/13 02:26:06;;;;;;;10.10;2.88;;;6.30;85.00;;;;;;5096634;28;20379;-35
2021/03/13 02:28:59;;;;;;;4.70;2.70;;;6.20;86.00;;;;;;5096363;28;20127;-35
2021/03/13 02:31:26;;;;;;;5.45;2.58;;;6.20;86.30;;;;;;5096895;28;20016;-36
2021/03/13 02:33:58;;;;;;;6.95;3.05;;;6.10;86.60;;;;;;5096513;28;20110;-36
2021/03/13 02:36:25;;;;;;;5.70;3.28;;;6.10;87.20;;;;;;5096418;28;20099;-35
2021/03/13 02:38:59;;;;;;;6.10;2.55;;;6.10;87.20;;;;;;5096387;28;20024;-36
2021/03/13 02:41:30;;;;;;;5.90;3.38;;;6.10;87.00;;;;;;5096429;28;20022;-36
2021/03/13 02:44:00;;;;;;;8.48;3.88;;;6.00;87.50;;;;;;5096431;28;20024;-36
2021/03/13 02:46:33;;;;;;;8.73;4.32;;;6.10;87.40;;;;;;5078832;28;20032;-37
2021/03/13 02:49:00;;;;;;;4.93;3.47;;;6.00;87.50;;;;;;5096166;28;20024;-36
2021/03/13 02:51:28;;;;;;;5.80;2.58;;;6.00;87.80;;;;;;5096141;28;20107;-35
2021/03/13 02:53:56;;;;;;;10.15;4.53;;;6.00;87.60;;;;;;5096073;28;20035;-36
2021/03/13 02:56:23;;;;;;;3.60;2.33;;;6.00;88.00;;;;;;5096386;28;20027;-35
2021/03/13 02:58:53;;;;;;;9.18;4.10;;;6.00;87.90;;;;;;5096249;28;20031;-36
2021/03/13 03:01:20;;;;;;;9.18;3.22;;;5.90;88.50;;;;;;5078438;28;20040;-36
2021/03/13 03:03:47;;;;;;;4.97;2.90;;;5.90;88.60;;;;;;5096015;28;20534;-36
2021/03/13 03:06:13;;;;;;;10.35;2.70;;;5.90;88.30;;;;;;5095970;28;20028;-35
2021/03/13 03:08:41;;;;;;;6.07;3.80;;;6.00;88.50;;;;;;5095767;28;20107;-36
2021/03/13 03:11:08;;;;;;;7.05;3.83;;;5.90;88.30;;;;;;5096033;28;20032;-36
2021/03/13 03:13:34;;;;;;;9.15;2.97;;;5.90;88.20;;;;;;5096075;28;20097;-36
2021/03/13 03:16:03;;;;;;;5.88;3.67;;;5.90;88.60;;;;;;5095684;28;20476;-36
2021/03/13 03:18:29;;;;;;;10.73;4.47;;;6.00;88.40;;;;;;5095614;28;20039;-36
2021/03/13 03:20:55;;;;;;;5.97;3.88;;;6.00;88.60;;;;;;5095191;28;20032;-36
2021/03/13 03:23:21;;;;;;;9.20;4.65;;;6.00;88.40;;;;;;5095900;28;20035;-36
2021/03/13 03:25:50;;;;;;;5.50;3.92;;;6.00;88.40;;;;;;5095500;28;20027;-36
2021/03/13 03:28:18;;;;;;;7.85;3.28;;;6.00;88.60;;;;;;5095328;28;20071;-36
2021/03/13 03:30:43;;;;;;;4.05;3.13;;;6.00;88.60;;;;;;5095366;28;20031;-36
2021/03/13 03:33:09;;;;;;;4.10;3.05;;;5.90;89.00;;;;;;5095346;28;20031;-36
2021/03/13 03:35:35;;;;;;;13.95;4.18;;;6.00;88.80;;;;;;5095382;28;20088;-36
2021/03/13 03:38:02;;;;;;;3.97;3.55;;;6.00;89.00;;;;;;5095353;28;20024;-36
2021/03/13 03:40:31;;;;;;;5.13;4.13;;;6.00;88.80;;;;;;5095512;28;20043;-37
2021/03/13 03:43:29;;;;;;;8.00;3.50;;;6.00;89.10;;;;;;5095219;28;20020;-36
2021/03/13 03:45:58;;;;;;;5.00;3.13;;;6.00;88.40;;;;;;5089135;28;20035;-37
2021/03/13 03:48:24;;;;;;;3.90;3.17;;;6.10;88.80;;;;;;5095352;28;20055;-36
2021/03/13 03:50:51;;;;;;;4.30;3.05;;;6.00;88.60;;;;;;5095104;28;20024;-37
2021/03/13 03:53:24;;;;;;;5.22;3.67;;;5.90;89.20;;;;;;5095501;28;20039;-36
2021/03/13 03:55:53;;;;;;;5.82;4.13;;;6.00;88.80;;;;;;5095164;28;20095;-35
2021/03/13 03:58:33;;;;;;;3.45;3.10;;;5.90;89.40;;;;;;5094912;28;20028;-36
2021/03/13 04:01:00;;;;;;;3.92;3.53;;;6.00;89.20;;;;;;5095133;28;20046;-36
2021/03/13 04:03:28;;;;;;;4.70;3.20;;;6.00;89.40;;;;;;5094827;28;20042;-36
2021/03/13 04:05:55;;;;;;;4.93;2.53;;;6.00;89.30;;;;;;5095020;28;20052;-35
2021/03/13 04:08:22;;;;;;;4.25;2.72;;;6.00;89.30;;;;;;5076431;28;20020;-36
2021/03/13 04:10:50;;;;;;;4.65;2.38;;;5.90;89.50;;;;;;5095353;28;20036;-36
2021/03/13 04:13:18;;;;;;;5.35;2.83;;;6.00;89.20;;;;;;5094645;28;20027;-35
2021/03/13 04:15:47;;;;;;;4.13;3.00;;;6.00;90.00;;;;;;5094564;28;20024;-36
2021/03/13 04:18:15;;;;;;;3.88;2.88;;;5.90;89.70;;;;;;5094581;28;20032;-36
2021/03/13 04:20:41;;;;;;;3.83;2.83;;;5.90;90.00;;;;;;5094489;28;20062;-36
2021/03/13 04:23:09;;;;;;;4.97;2.67;;;5.90;90.00;;;;;;5076214;28;20028;-36
2021/03/13 04:25:36;;;;;;;4.40;2.42;;;6.00;89.60;;;;;;5094975;28;20020;-36
2021/03/13 04:28:03;;;;;;;3.08;2.15;;;6.00;89.60;;;;;;5094108;28;20508;-36
2021/03/13 04:30:29;;;;;;;1.25;1.15;;;6.00;89.40;;;;;;5094350;28;20444;-35
2021/03/13 04:32:58;;;;;;;1.70;1.60;;;6.00;89.20;;;;;;5093493;28;20085;-35
2021/03/13 04:35:26;;;;;;;3.00;2.47;;;6.10;89.00;;;;;;5094282;28;20016;-35
2021/03/13 04:37:53;;;;;;;4.38;2.40;;;6.10;89.10;;;;;;5094009;28;20376;-35
2021/03/13 04:40:20;;;;;;;2.13;1.92;;;5.90;89.60;;;;;;5094155;28;20095;-36
2021/03/13 04:42:47;;;;;;;4.93;2.30;;;6.00;89.30;;;;;;5094246;28;20024;-36
2021/03/13 04:45:14;;;;;;;2.05;1.38;;;6.00;89.00;;;;;;5094011;28;20027;-36
2021/03/13 04:47:49;;;;;;;7.03;1.58;;;6.10;88.60;;;;;;5075715;28;20482;-36
2021/03/13 04:50:17;;;;;;;3.00;2.03;;;6.10;88.40;;;;;;5094008;28;20024;-37
2021/03/13 04:52:43;;;;;;;3.92;1.92;;;6.20;88.60;;;;;;5094034;28;20020;-36
2021/03/13 04:55:09;;;;;;;1.45;1.35;;;6.20;88.50;;;;;;5093869;28;20073;-36
2021/03/13 04:57:35;;;;;;;3.20;1.38;;;6.10;88.70;;;;;;5093751;28;20024;-37
2021/03/13 05:00:06;;;;;;;1.52;1.08;;;6.20;88.70;;;;;;5075578;28;20085;-37
2021/03/13 05:02:32;;;;;;;3.90;2.05;;;6.20;87.90;;;;;;5093664;28;20036;-38
2021/03/13 05:04:58;;;;;;;2.70;1.60;;;6.10;89.10;;;;;;5093621;28;20507;-35
2021/03/13 05:07:23;;;;;;;1.05;1.00;;;6.20;89.10;;;;;;5093857;28;20024;-35
2021/03/13 05:09:49;;;;;;;3.22;1.15;;;6.20;89.10;;;;;;5093748;28;20032;-36
2021/03/13 05:12:15;;;;;;;2.67;1.60;;;6.10;89.40;;;;;;5093842;28;20016;-36
2021/03/13 05:14:40;;;;;;;2.35;1.38;;;6.20;89.10;;;;;;5093838;28;20020;-37
2021/03/13 05:17:06;;;;;;;4.80;1.58;;;6.20;89.10;;;;;;5093484;28;20020;-36
2021/03/13 05:19:32;;;;;;;6.25;1.67;;;6.30;88.60;;;;;;5093401;28;20154;-36
2021/03/13 05:21:57;;;;;;;3.33;1.83;;;6.30;88.70;;;;;;5075528;28;20032;-36
2021/03/13 05:24:23;;;;;;;2.60;1.05;;;6.20;89.30;;;;;;5093624;28;20061;-36
2021/03/13 05:26:49;;;;;;;3.22;1.33;;;6.30;88.70;;;;;;5093552;28;20032;-36
2021/03/13 05:29:15;;;;;;;2.20;1.10;;;6.30;89.30;;;;;;5093033;28;20129;-36
2021/03/13 05:31:40;;;;;;;2.78;1.75;;;6.30;89.30;;;;;;5093276;28;20447;-36
2021/03/13 05:34:06;;;;;;;1.10;1.00;;;6.30;89.30;;;;;;5093315;28;20031;-36
2021/03/13 05:36:32;;;;;;;1.75;1.00;;;6.30;88.80;;;;;;5094042;28;20386;-36
2021/03/13 05:38:58;;;;;;;1.90;1.10;;;6.30;88.90;;;;;;5093802;28;20102;-36
2021/03/13 05:41:23;;;;;;;2.85;1.15;;;6.40;88.30;;;;;;5093322;28;20089;-36
2021/03/13 05:43:50;;;;;;;0.90;0.77;;;6.40;88.40;;;;;;5075041;28;20055;-36
2021/03/13 05:46:18;;;;;;;4.22;1.23;;;6.50;88.30;;;;;;5097380;28;20426;-36
2021/03/13 05:48:44;;;;;;;1.70;0.70;;;6.40;88.60;;;;;;5097607;28;20039;-36
2021/03/13 05:51:13;;;;;;;1.17;1.08;;;6.40;88.70;;;;;;5097348;28;20077;-36
2021/03/13 05:53:40;;;;;;;6.72;1.80;;;6.40;88.90;;;;;;5097372;28;20035;-36
2021/03/13 05:56:08;;;;;;;4.07;1.25;;;6.50;88.80;;;;;;5097216;28;20032;-36
2021/03/13 05:58:39;;;;;;;1.63;0.70;;;6.50;88.30;;;;;;5097533;28;20024;-36
2021/03/13 06:01:05;;;;;;;;;;;6.50;88.60;;;;;;5097997;28;20036;-36
2021/03/13 06:03:33;;;;;;;2.15;1.00;;;6.60;88.20;;;;;;5097207;28;19927;-36
2021/03/13 06:06:00;;;;;;;2.83;1.10;;;6.60;88.40;;;;;;5097063;28;20539;-36
2021/03/13 06:08:26;;;;;;;0.88;0.85;;;6.70;88.10;;;;;;5097541;28;20032;-37
2021/03/13 06:10:52;;;;;;;1.33;1.00;;;6.70;88.00;;;;;;5096874;28;20036;-38
2021/03/13 06:13:18;;;;;;;2.42;0.90;;;6.80;87.70;;;;;;5097167;28;20020;-36
2021/03/13 06:15:47;;;;;;;9.27;3.28;;;6.70;88.50;;;;;;5096897;28;20024;-36
2021/03/13 06:18:12;;;;;;;5.15;0.90;;;6.80;88.10;;;;;;5096664;28;20036;-37
2021/03/13 06:20:39;;;;;;;2.50;0.55;;;6.80;87.70;;;;;;5096790;28;20081;-36
2021/03/13 06:23:08;;;;;;;1.67;1.02;;;6.80;87.60;;;;;;5078320;28;20024;-35
2021/03/13 06:25:35;;;;;;;3.85;0.70;;;6.80;88.40;;;;;;5096499;28;20089;-36
2021/03/13 06:28:02;;;;;;;2.95;1.23;;;6.80;87.60;;;;;;5096210;28;20629;-36
2021/03/13 06:30:30;;;;;;;1.65;1.00;;;6.90;87.00;;;;;;5096842;28;20464;-36
2021/03/13 06:32:56;;;;;;;5.50;1.30;;;6.80;87.70;;;;;;5096838;28;20032;-36
2021/03/13 06:35:24;;;;;;;0.82;0.65;;;6.90;87.60;;;;;;5096423;28;20468;-35
2021/03/13 06:37:52;;;;;;;2.05;0.95;;;6.90;87.50;;;;;;5096367;28;20021;-37
2021/03/13 06:40:35;;;;;;;0.70;0.70;;;7.00;87.50;;;;;;5097029;28;20020;-36
2021/03/13 06:43:20;;;;;;;1.48;0.70;;;7.00;87.30;;;;;;5096473;28;20028;-37
2021/03/13 06:46:07;;;;;;;1.83;1.05;;;7.20;86.30;;;;;;5096255;28;20093;-36
2021/03/13 06:48:36;;;;;;;4.22;1.17;;;7.10;86.80;;;;;;5096029;28;20039;-35
2021/03/13 06:51:24;;;;;;;0.60;0.60;;;7.10;87.10;;;;;;5077990;28;20020;-36
2021/03/13 06:54:08;;;;;;;1.15;0.90;;;7.10;86.80;;;;;;5096361;28;20357;-35
2021/03/13 06:56:37;;;;;;;0.65;0.57;;;7.20;86.80;;;;;;5095313;28;20040;-35
2021/03/13 06:59:16;;;;;;;2.92;0.80;;;7.20;86.40;;;;;;5096235;28;20464;-35
2021/03/13 07:01:43;;;;;;;1.92;0.63;;;7.10;86.90;;;;;;5095993;28;20084;-35
2021/03/13 07:04:09;;;;;;;1.63;0.60;;;7.20;86.30;;;;;;5096033;28;20066;-35
2021/03/13 07:06:46;;;;;;;6.30;0.98;;;7.30;86.20;;;;;;5095953;28;20394;-35
2021/03/13 07:09:12;;;;;;;4.75;0.93;;;7.30;85.60;;;;;;5095898;28;20028;-35
2021/03/13 07:11:38;;;;;;;2.58;0.63;;;7.30;86.10;;;;;;5095709;28;20433;-36
2021/03/13 07:14:04;;;;;;;1.27;0.73;;;7.30;85.40;;;;;;5095762;28;20031;-35
2021/03/13 07:16:40;;;;;;;2.42;0.88;;;7.50;85.20;;;;;;5095754;28;20034;-35
2021/03/13 07:19:10;;;;;;;2.45;0.50;;;7.40;85.50;;;;;;5095452;28;20026;-35
2021/03/13 07:21:40;;;;;;;;;;;7.40;84.90;;;;;;5096066;28;20032;-35
2021/03/13 07:24:12;;;;;;;1.95;0.50;;;7.50;84.80;;;;;;5095172;28;19943;-36
2021/03/13 07:26:42;;;;;;;0.68;0.63;;;7.50;85.00;;;;;;5096043;28;20487;-36
2021/03/13 07:29:10;;;;;;;5.45;1.63;;;7.50;84.80;;;;;;5095350;28;20048;-35
2021/03/13 07:31:41;;;;;;;3.72;1.27;;;7.70;83.70;;;;;;5095958;28;20475;-35
2021/03/13 07:34:12;;;;;;;;;;;7.50;85.00;;;;;;5095901;28;20081;-35
2021/03/13 07:36:41;;;;;;;0.65;0.50;;;7.60;86.20;;;;;;5095360;28;19911;-36
2021/03/13 07:39:18;;;;;;;1.85;0.50;;;7.40;86.10;;;;;;5077100;28;20028;-36
2021/03/13 07:42:01;;;;;;;4.97;1.55;;;7.10;88.60;;;;;;5095412;28;20111;-36
2021/03/13 07:44:29;;;;;;;3.40;1.27;;;6.80;88.90;;;;;;5079226;28;20024;-36
2021/03/13 07:46:55;;;;;;;2.60;1.27;;;6.80;86.20;;;;;;5095387;28;20379;-36
2021/03/13 07:49:22;;;;;;;2.42;1.80;;;6.80;85.00;;;;;;5095264;28;20028;-36
2021/03/13 07:51:48;;;;;;;2.47;1.63;;;6.80;86.60;;;;;;5095028;28;20016;-36
2021/03/13 07:54:14;;;;;;;3.63;1.20;;;6.70;84.60;;;;;;5094910;28;20383;-36
2021/03/13 07:56:41;;;;;;;3.25;1.00;;;6.80;82.90;;;;;;5094792;28;20416;-36
2021/03/13 07:59:11;;;;;;;3.03;1.17;;;6.80;83.40;;;;;;5076572;28;20070;-36
2021/03/13 08:01:51;;;;;;;1.45;1.05;;;6.80;84.10;;;;;;5094579;28;20060;-36
2021/03/13 08:04:38;;;;;;;5.45;0.90;;;6.90;83.60;;;;;;5076512;28;20035;-36
2021/03/13 08:07:05;;;;;;;2.45;1.17;;;7.00;83.90;;;;;;5094407;28;20035;-36
2021/03/13 08:09:31;;;;;;;2.80;1.05;;;7.00;83.70;;;;;;5093763;28;20024;-36
2021/03/13 08:12:01;;;;;;;2.28;1.02;;;7.00;84.00;;;;;;5094719;28;20035;-36
2021/03/13 08:14:33;;;;;;;3.25;1.23;;;7.10;82.70;;;;;;5094591;28;20028;-36
2021/03/13 08:17:12;;;;;;;4.72;1.05;;;7.10;83.40;;;;;;5094539;28;20496;-36
2021/03/13 08:19:40;;;;;;;0.95;0.73;;;7.20;80.10;;;;;;5094317;28;20039;-36
2021/03/13 08:22:12;;;;;;;2.22;1.02;;;7.30;79.20;;;;;;5094529;28;20024;-36
2021/03/13 08:24:40;;;;;;;3.67;1.20;;;7.20;79.50;;;;;;5094226;28;20483;-36
2021/03/13 08:27:07;;;;;;;1.95;0.98;;;7.30;77.10;;;;;;5075797;28;20056;-36
2021/03/13 08:29:54;;;;;;;4.25;0.90;;;7.30;77.60;;;;;;5094062;28;20035;-36
2021/03/13 08:32:58;;;;;;;1.55;0.80;;;7.30;77.40;;;;;;5094065;28;20016;-36
2021/03/13 08:35:42;;;;;;;2.65;0.98;;;7.30;76.90;;;;;;5090036;28;20032;-36
2021/03/13 08:38:08;;;;;;;4.20;2.22;;;7.30;76.90;;;;;;5093799;28;20028;-36
2021/03/13 08:40:40;;;;;;;2.78;0.90;;;7.30;76.80;;;;;;5093971;28;20032;-37
2021/03/13 08:43:35;;;;;;;1.20;1.10;;;7.30;76.80;;;;;;5093795;28;20372;-36
2021/03/13 08:46:01;;;;;;;4.00;1.20;;;7.40;75.80;;;;;;5093828;28;20027;-36
2021/03/13 08:48:58;;;;;;;2.60;1.38;;;7.40;75.40;;;;;;5075338;28;20031;-35
2021/03/13 08:51:25;;;;;;;4.68;1.27;;;7.50;74.20;;;;;;5093881;28;20487;-36
2021/03/13 08:53:51;;;;;;;4.15;1.38;;;7.50;74.40;;;;;;5094087;28;20020;-36
2021/03/13 08:56:41;;;;;;;6.72;1.17;;;7.50;74.50;;;;;;5075120;28;20107;-37
2021/03/13 08:59:14;;;;;;;3.00;0.73;;;7.50;74.40;;;;;;5093664;28;20379;-36
2021/03/13 09:01:41;;;;;;;2.03;0.85;;;7.50;74.30;;;;;;5093308;28;20024;-36
2021/03/13 09:04:08;;;;;;;3.90;1.20;;;7.50;73.50;;;;;;5093443;28;20040;-36
2021/03/13 09:06:34;;;;;;;2.72;1.15;;;7.50;74.30;;;;;;5093528;28;20408;-36
2021/03/13 09:09:15;;;;;;;1.88;1.08;;;7.60;74.00;;;;;;5093603;28;20059;-37
2021/03/13 09:11:42;;;;;;;3.13;1.10;;;7.60;73.80;;;;;;5093251;28;20016;-36
2021/03/13 09:14:09;;;;;;;2.80;0.80;;;7.60;72.60;;;;;;5093135;28;20054;-36
2021/03/13 09:16:36;;;;;;;12.93;1.50;;;7.60;73.20;;;;;;5093882;28;20024;-36
2021/03/13 09:19:03;;;;;;;2.63;1.10;;;7.60;72.30;;;;;;5074442;28;20035;-36
2021/03/13 09:21:44;;;;;;;12.68;1.45;;;7.70;71.50;;;;;;5093540;28;20051;-37
2021/03/13 09:24:21;;;;;;;4.13;1.50;;;7.70;71.70;;;;;;5092897;28;20526;-36
2021/03/13 09:26:48;;;;;;;5.78;1.52;;;7.80;71.60;;;;;;5093026;28;20021;-36
2021/03/13 09:29:14;;;;;;;3.38;2.00;;;7.70;71.40;;;;;;5074605;28;20055;-36
2021/03/13 09:31:41;;;;;;;4.00;1.80;;;7.80;70.80;;;;;;5092891;28;20040;-35
2021/03/13 09:34:15;;;;;;;4.78;1.52;;;7.80;71.10;;;;;;5092897;28;20028;-37
2021/03/13 09:36:40;;;;;;;3.63;1.10;;;7.80;71.30;;;;;;5092864;28;20471;-37
2021/03/13 09:39:06;;;;;;;7.07;2.35;;;7.90;70.10;;;;;;5092636;28;20032;-37
2021/03/13 09:41:32;;;;;;;7.32;1.75;;;7.90;70.90;;;;;;5093007;28;20027;-36
2021/03/13 09:43:58;;;;;;;6.85;1.75;;;7.90;70.30;;;;;;5092320;28;20069;-36
2021/03/13 09:46:24;;;;;;;4.63;1.38;;;7.90;70.40;;;;;;5092861;28;20111;-35
2021/03/13 09:48:50;;;;;;;5.53;1.33;;;7.90;70.80;;;;;;5092288;28;20075;-36
2021/03/13 09:51:16;;;;;;;6.65;1.45;;;8.00;71.50;;;;;;5074592;28;20028;-36
2021/03/13 09:53:42;;;;;;;2.45;1.55;;;8.20;70.90;;;;;;5092695;28;20052;-36
2021/03/13 09:56:08;;;;;;;4.57;1.33;;;8.40;69.70;;;;;;5092709;28;20023;-36
2021/03/13 09:58:34;;;;;;;5.03;1.20;;;8.40;69.80;;;;;;5092516;28;20081;-44
2021/03/13 10:01:01;;;;;;;2.72;1.42;;;8.30;70.30;;;;;;5092879;28;20135;-36
2021/03/13 10:03:27;;;;;;;6.93;1.60;;;8.20;70.60;;;;;;5057936;28;20028;-36
2021/03/13 10:05:57;;;;;;;8.40;1.48;;;8.20;70.20;;;;;;5092881;28;20122;-36
2021/03/13 10:08:36;;;;;;;5.15;1.27;;;8.20;70.40;;;;;;5092119;28;20024;-36
2021/03/13 10:11:04;;;;;;;8.15;2.35;;;8.10;70.90;;;;;;5092694;28;20024;-36
2021/03/13 10:13:30;;;;;;;4.90;1.88;;;8.30;70.70;;;;;;5092499;28;20467;-37
2021/03/13 10:15:57;;;;;;;12.15;2.65;;;8.30;69.20;;;;;;5092522;28;20111;-37
2021/03/13 10:18:28;;;;;;;7.00;1.83;;;8.40;69.50;;;;;;5092759;28;20426;-36
2021/03/13 10:20:58;;;;;;;4.88;1.90;;;8.80;68.60;;;;;;5092544;28;20023;-36
2021/03/13 10:23:37;;;;;;;5.70;1.70;;;8.80;68.30;;;;;;5092843;28;20024;-36
2021/03/13 10:26:11;;;;;;;7.95;2.53;;;8.90;67.80;;;;;;5092907;28;20391;-36
2021/03/13 10:28:45;;;;;;;8.75;2.53;;;9.00;67.80;;;;;;5092344;28;20040;-36
2021/03/13 10:31:19;;;;;;;8.35;1.98;;;8.90;68.10;;;;;;5093328;28;20035;-36
2021/03/13 10:33:45;;;;;;;6.90;1.35;;;9.10;66.90;;;;;;5096148;28;20020;-36
2021/03/13 10:36:13;;;;;;;6.90;2.05;;;9.90;62.60;;;;;;5078522;28;20028;-37
2021/03/13 10:38:43;;;;;;;6.22;1.20;;;9.50;63.30;;;;;;5096642;28;20028;-36
2021/03/13 10:41:15;;;;;;;7.13;1.83;;;9.50;62.10;;;;;;5077937;28;20077;-35
2021/03/13 10:43:45;;;;;;;8.40;2.33;;;10.20;59.80;;;;;;5096267;28;20028;-38
2021/03/13 10:46:10;;;;;;;7.63;1.80;;;10.10;60.00;;;;;;5096109;28;20107;-35
2021/03/13 10:48:55;;;;;;;13.30;2.55;;;9.40;60.60;;;;;;5095951;28;20554;-36
2021/03/13 10:51:25;;;;;;;9.93;2.60;;;9.40;61.60;;;;;;5096138;28;20411;-35
2021/03/13 10:53:51;;;;;;;12.82;2.78;;;9.70;60.00;;;;;;5096361;28;20479;-37
2021/03/13 10:56:17;;;;;;;12.90;4.07;;;9.80;59.80;;;;;;5095662;28;20099;-35
2021/03/13 10:58:55;;;;;;;11.55;2.78;;;9.50;60.30;;;;;;5095556;28;20055;-36
2021/03/13 11:01:21;;;;;;;13.13;3.40;;;9.50;59.30;;;;;;5095947;28;20051;-36
2021/03/13 11:03:50;;;;;;;10.23;2.28;;;9.50;60.10;;;;;;5095736;28;20028;-37
2021/03/13 11:06:35;;;;;;;12.63;2.65;;;9.50;59.20;;;;;;5095482;28;20028;-36
2021/03/13 11:09:22;;;;;;;8.45;2.63;;;9.40;59.30;;;;;;5095850;28;20032;-35
2021/03/13 11:11:48;;;;;;;12.88;2.25;;;9.40;57.00;;;;;;5095628;28;20058;-35
2021/03/13 11:14:13;;;;;;;5.40;1.77;;;9.50;57.50;;;;;;5095583;28;20056;-37
2021/03/13 11:16:39;;;;;;;7.25;1.98;;;9.50;57.40;;;;;;5095743;28;20368;-36
2021/03/13 11:19:14;;;;;;;5.28;2.00;;;9.80;57.10;;;;;;5095888;28;20372;-35
2021/03/13 11:21:41;;;;;;;12.40;2.45;;;9.70;57.20;;;;;;5077306;28;20023;-35
2021/03/13 11:24:07;;;;;;;10.95;2.45;;;9.80;56.30;;;;;;5095399;28;20062;-35
2021/03/13 11:26:33;;;;;;;12.10;3.20;;;9.40;55.70;;;;;;5094983;28;20429;-35
2021/03/13 11:28:59;;;;;;;10.90;2.10;;;9.40;56.10;;;;;;5094763;28;20044;-35
2021/03/13 11:31:28;;;;;;;6.85;1.67;;;9.30;56.80;;;;;;5076879;28;20070;-36
2021/03/13 11:33:54;;;;;;;12.70;4.50;;;8.90;59.30;;;;;;5076881;28;20021;-36
2021/03/13 11:36:19;;;;;;;18.08;3.03;;;7.20;71.80;;;;;;5095427;28;20482;-36
2021/03/13 11:38:45;;;;;;;13.57;2.20;;;5.90;80.00;;;;;;5094850;28;20020;-37
2021/03/13 11:41:11;;;;;;;8.93;2.33;;;6.00;80.00;;;;;;5095238;28;20028;-36
2021/03/13 11:43:41;;;;;;;8.77;2.28;;;6.40;80.00;;;;;;5094774;28;20020;-36
2021/03/13 11:46:08;;;;;;;11.30;2.00;;;6.60;80.80;;;;;;5094953;28;20036;-37
2021/03/13 11:48:34;;;;;;;4.75;2.08;;;6.80;80.10;;;;;;5094763;28;20109;-36
2021/03/13 11:51:00;;;;;;;19.48;3.60;;;7.10;79.20;;;;;;5094871;28;20016;-36
2021/03/13 11:53:25;;;;;;;21.90;3.40;;;7.10;80.00;;;;;;5094647;28;20028;-36
2021/03/13 11:55:51;;;;;;;14.93;2.47;;;7.20;80.60;;;;;;5094798;28;20046;-36
2021/03/13 11:58:17;;;;;;;13.13;3.20;;;7.80;77.90;;;;;;5094535;28;20043;-36
2021/03/13 12:00:43;;;;;;;11.73;2.53;;;8.00;76.60;;;;;;5094885;28;20106;-36
2021/03/13 12:03:08;;;;;;;10.43;3.50;;;8.50;75.90;;;;;;5094307;28;20054;-36
2021/03/13 12:05:34;;;;;;;11.00;3.80;;;8.80;73.60;;;;;;5094109;28;20025;-37
2021/03/13 12:08:00;;;;;;;11.43;2.40;;;8.60;74.40;;;;;;5094480;28;20032;-35
2021/03/13 12:10:26;;;;;;;15.18;4.78;;;8.40;72.80;;;;;;5094450;28;20043;-36
2021/03/13 12:12:51;;;;;;;13.10;3.20;;;8.50;68.40;;;;;;5094805;28;20012;-36
2021/03/13 12:15:18;;;;;;;10.73;3.08;;;8.60;68.80;;;;;;5094437;28;20024;-36
2021/03/13 12:17:44;;;;;;;8.82;2.45;;;8.90;66.00;;;;;;5093640;28;20031;-36
2021/03/13 12:20:10;;;;;;;16.42;2.72;;;9.20;61.50;;;;;;5094390;28;20024;-36
2021/03/13 12:22:37;;;;;;;18.08;4.07;;;9.10;62.20;;;;;;5094762;28;20305;-37
2021/03/13 12:25:07;;;;;;;11.05;2.17;;;9.10;62.20;;;;;;5094236;28;20063;-37
2021/03/13 12:27:39;;;;;;;14.10;2.55;;;9.00;61.80;;;;;;5094067;28;20501;-38
2021/03/13 12:30:08;;;;;;;12.80;2.58;;;8.80;63.20;;;;;;5094157;28;20032;-36
2021/03/13 12:32:35;;;;;;;15.65;2.53;;;8.80;64.10;;;;;;5094158;28;20480;-36
2021/03/13 12:35:05;;;;;;;11.32;2.55;;;8.90;62.50;;;;;;5094028;28;20020;-36
2021/03/13 12:37:31;;;;;;;10.45;3.03;;;8.80;62.60;;;;;;5094217;28;20027;-36
2021/03/13 12:39:56;;;;;;;12.32;3.08;;;8.60;63.00;;;;;;5076138;28;20459;-36
2021/03/13 12:42:23;;;;;;;3.30;1.77;;;8.30;65.50;;;;;;5094056;28;20024;-37
2021/03/13 12:44:48;;;;;;;14.95;2.15;;;8.30;65.00;;;;;;5094244;28;20039;-36
2021/03/13 12:47:14;;;;;;;11.70;2.15;;;8.20;67.60;;;;;;5093867;28;20024;-36
2021/03/13 12:49:40;;;;;;;9.82;2.22;;;8.30;66.20;;;;;;5093922;28;20032;-36
2021/03/13 12:52:05;;;;;;;13.75;3.60;;;8.50;64.90;;;;;;5094573;28;20405;-36
2021/03/13 12:54:35;;;;;;;23.67;4.15;;;8.50;65.20;;;;;;5093701;28;20456;-36
2021/03/13 12:57:01;;;;;;;7.43;1.80;;;8.70;65.10;;;;;;5075155;28;20028;-36
2021/03/13 12:59:27;;;;;;;6.13;1.80;;;8.40;65.70;;;;;;5075726;28;20028;-36
2021/03/13 13:01:53;;;;;;;8.75;2.15;;;8.10;67.30;;;;;;5094263;28;20448;-36
2021/03/13 13:04:18;;;;;;;4.03;2.13;;;7.90;69.00;;;;;;5093763;28;20046;-36
2021/03/13 13:06:44;;;;;;;4.03;1.00;;;7.70;69.60;;;;;;5075359;28;20030;-36